sensor_id;sensor_type;location;lat;lon;timestamp;P1;durP1;ratioP1;P2;durP2;ratioP2
11964;SDS011;6042;41.326;19.826;2023-03-13T00:02:09;9.50;;;6.40;;
11964;SDS011;6042;41.326;19.826;2023-03-13T00:04:38;6.07;;;5.03;;
11964;SDS011;6042;41.326;19.826;2023-03-13T00:07:08;7.27;;;4.17;;
11964;SDS011;6042;41.326;19.826;2023-03-13T00:09:36;8.93;;;5.23;;
11964;SDS011;6042;41.326;19.826;2023-03-13T00:12:05;6.03;;;5.37;;
11964;SDS011;6042;41.326;19.826;2023-03-13T00:14:34;5.73;;;5.23;;
11964;SDS011;6042;41.326;19.826;2023-03-13T00:17:02;9.40;;;5.40;;
11964;SDS011;6042;41.326;19.826;2023-03-13T00:19:31;9.47;;;5.20;;
11964;SDS011;6042;41.326;19.826;2023-03-13T00:21:59;6.30;;;4.90;;
11964;SDS011;6042;41.326;19.826;2023-03-13T00:24:29;6.13;;;5.33;;
11964;SDS011;6042;41.326;19.826;2023-03-13T00:26:59;6.73;;;5.40;;
11964;SDS011;6042;41.326;19.826;2023-03-13T00:29:29;7.57;;;5.10;;
11964;SDS011;6042;41.326;19.826;2023-03-13T00:31:59;9.07;;;6.00;;
11964;SDS011;6042;41.326;19.826;2023-03-13T00:34:28;9.73;;;6.17;;
11964;SDS011;6042;41.326;19.826;2023-03-13T00:36:57;12.90;;;6.03;;
11964;SDS011;6042;41.326;19.826;2023-03-13T00:39:26;6.33;;;5.30;;
11964;SDS011;6042;41.326;19.826;2023-03-13T00:41:56;17.03;;;5.03;;
11964;SDS011;6042;41.326;19.826;2023-03-13T00:44:26;9.07;;;5.30;;
11964;SDS011;6042;41.326;19.826;2023-03-13T00:46:55;7.97;;;5.70;;
11964;SDS011;6042;41.326;19.826;2023-03-13T00:49:23;9.37;;;5.20;;
11964;SDS011;6042;41.326;19.826;2023-03-13T00:51:52;6.43;;;5.03;;
11964;SDS011;6042;41.326;19.826;2023-03-13T00:54:21;7.57;;;4.90;;
11964;SDS011;6042;41.326;19.826;2023-03-13T00:56:49;6.93;;;4.63;;
11964;SDS011;6042;41.326;19.826;2023-03-13T00:59:19;6.33;;;4.97;;
11964;SDS011;6042;41.326;19.826;2023-03-13T01:01:48;8.27;;;6.40;;
11964;SDS011;6042;41.326;19.826;2023-03-13T01:04:16;8.13;;;5.77;;
11964;SDS011;6042;41.326;19.826;2023-03-13T01:06:44;9.73;;;5.03;;
11964;SDS011;6042;41.326;19.826;2023-03-13T01:09:13;8.43;;;5.20;;
11964;SDS011;6042;41.326;19.826;2023-03-13T01:11:43;8.33;;;5.23;;
11964;SDS011;6042;41.326;19.826;2023-03-13T01:14:13;8.50;;;4.67;;
11964;SDS011;6042;41.326;19.826;2023-03-13T01:16:44;8.50;;;5.20;;
11964;SDS011;6042;41.326;19.826;2023-03-13T01:19:13;9.00;;;5.23;;
11964;SDS011;6042;41.326;19.826;2023-03-13T01:21:44;10.97;;;5.17;;
11964;SDS011;6042;41.326;19.826;2023-03-13T01:24:13;6.90;;;4.77;;
11964;SDS011;6042;41.326;19.826;2023-03-13T01:26:42;5.80;;;4.47;;
11964;SDS011;6042;41.326;19.826;2023-03-13T01:29:11;6.40;;;5.03;;
11964;SDS011;6042;41.326;19.826;2023-03-13T01:31:40;8.50;;;5.13;;
11964;SDS011;6042;41.326;19.826;2023-03-13T01:34:10;5.90;;;4.27;;
11964;SDS011;6042;41.326;19.826;2023-03-13T01:36:38;9.53;;;6.20;;
11964;SDS011;6042;41.326;19.826;2023-03-13T01:39:06;10.37;;;6.50;;
11964;SDS011;6042;41.326;19.826;2023-03-13T01:41:35;10.77;;;7.23;;
11964;SDS011;6042;41.326;19.826;2023-03-13T01:44:04;10.83;;;6.80;;
11964;SDS011;6042;41.326;19.826;2023-03-13T01:46:42;11.93;;;7.33;;
11964;SDS011;6042;41.326;19.826;2023-03-13T01:49:30;11.47;;;7.60;;
11964;SDS011;6042;41.326;19.826;2023-03-13T01:52:18;13.50;;;7.40;;
11964;SDS011;6042;41.326;19.826;2023-03-13T01:55:04;10.27;;;7.80;;
11964;SDS011;6042;41.326;19.826;2023-03-13T01:57:40;11.20;;;8.03;;
11964;SDS011;6042;41.326;19.826;2023-03-13T02:00:12;9.63;;;7.17;;
11964;SDS011;6042;41.326;19.826;2023-03-13T02:02:45;11.97;;;8.23;;
11964;SDS011;6042;41.326;19.826;2023-03-13T02:05:19;11.60;;;7.57;;
11964;SDS011;6042;41.326;19.826;2023-03-13T02:07:49;13.13;;;7.47;;
11964;SDS011;6042;41.326;19.826;2023-03-13T02:10:22;9.13;;;6.77;;
11964;SDS011;6042;41.326;19.826;2023-03-13T02:12:55;10.37;;;7.17;;
11964;SDS011;6042;41.326;19.826;2023-03-13T02:15:24;10.73;;;7.03;;
11964;SDS011;6042;41.326;19.826;2023-03-13T02:17:54;9.40;;;7.37;;
11964;SDS011;6042;41.326;19.826;2023-03-13T02:20:25;12.07;;;7.40;;
11964;SDS011;6042;41.326;19.826;2023-03-13T02:22:55;10.33;;;7.30;;
11964;SDS011;6042;41.326;19.826;2023-03-13T02:25:33;10.00;;;7.30;;
11964;SDS011;6042;41.326;19.826;2023-03-13T02:28:10;10.20;;;6.90;;
11964;SDS011;6042;41.326;19.826;2023-03-13T02:30:42;9.73;;;7.67;;
11964;SDS011;6042;41.326;19.826;2023-03-13T02:33:11;13.93;;;7.53;;
11964;SDS011;6042;41.326;19.826;2023-03-13T02:35:41;8.70;;;6.87;;
11964;SDS011;6042;41.326;19.826;2023-03-13T02:38:15;9.63;;;7.23;;
11964;SDS011;6042;41.326;19.826;2023-03-13T02:40:49;10.80;;;6.97;;
11964;SDS011;6042;41.326;19.826;2023-03-13T02:43:22;6.90;;;6.20;;
11964;SDS011;6042;41.326;19.826;2023-03-13T02:46:01;9.57;;;6.17;;
11964;SDS011;6042;41.326;19.826;2023-03-13T02:48:35;9.37;;;5.97;;
11964;SDS011;6042;41.326;19.826;2023-03-13T02:51:10;11.03;;;6.50;;
11964;SDS011;6042;41.326;19.826;2023-03-13T02:53:45;10.17;;;5.63;;
11964;SDS011;6042;41.326;19.826;2023-03-13T02:56:19;9.87;;;6.47;;
11964;SDS011;6042;41.326;19.826;2023-03-13T02:58:51;8.07;;;6.20;;
11964;SDS011;6042;41.326;19.826;2023-03-13T03:01:22;10.50;;;6.03;;
11964;SDS011;6042;41.326;19.826;2023-03-13T03:03:51;7.53;;;5.30;;
11964;SDS011;6042;41.326;19.826;2023-03-13T03:06:20;6.17;;;5.17;;
11964;SDS011;6042;41.326;19.826;2023-03-13T03:08:49;7.47;;;5.67;;
11964;SDS011;6042;41.326;19.826;2023-03-13T03:11:18;11.67;;;5.60;;
11964;SDS011;6042;41.326;19.826;2023-03-13T03:13:53;5.73;;;5.13;;
11964;SDS011;6042;41.326;19.826;2023-03-13T03:16:23;7.50;;;5.10;;
11964;SDS011;6042;41.326;19.826;2023-03-13T03:18:52;6.53;;;5.07;;
11964;SDS011;6042;41.326;19.826;2023-03-13T03:21:20;6.27;;;4.83;;
11964;SDS011;6042;41.326;19.826;2023-03-13T03:23:50;4.90;;;4.17;;
11964;SDS011;6042;41.326;19.826;2023-03-13T03:26:20;4.37;;;3.97;;
11964;SDS011;6042;41.326;19.826;2023-03-13T03:28:48;5.57;;;3.90;;
11964;SDS011;6042;41.326;19.826;2023-03-13T03:31:17;4.20;;;3.57;;
11964;SDS011;6042;41.326;19.826;2023-03-13T03:33:46;6.00;;;4.40;;
11964;SDS011;6042;41.326;19.826;2023-03-13T03:36:17;5.67;;;4.13;;
11964;SDS011;6042;41.326;19.826;2023-03-13T03:38:47;6.07;;;4.73;;
11964;SDS011;6042;41.326;19.826;2023-03-13T03:41:20;6.83;;;4.43;;
11964;SDS011;6042;41.326;19.826;2023-03-13T03:43:49;5.57;;;4.00;;
11964;SDS011;6042;41.326;19.826;2023-03-13T03:46:21;5.13;;;3.73;;
11964;SDS011;6042;41.326;19.826;2023-03-13T03:48:50;6.60;;;3.40;;
11964;SDS011;6042;41.326;19.826;2023-03-13T03:51:19;4.77;;;3.10;;
11964;SDS011;6042;41.326;19.826;2023-03-13T03:53:49;5.13;;;3.43;;
11964;SDS011;6042;41.326;19.826;2023-03-13T03:56:17;3.53;;;3.17;;
11964;SDS011;6042;41.326;19.826;2023-03-13T03:58:52;3.70;;;3.07;;
11964;SDS011;6042;41.326;19.826;2023-03-13T04:01:34;3.70;;;3.40;;
11964;SDS011;6042;41.326;19.826;2023-03-13T04:04:03;3.87;;;3.47;;
11964;SDS011;6042;41.326;19.826;2023-03-13T04:06:32;5.27;;;4.77;;
11964;SDS011;6042;41.326;19.826;2023-03-13T04:09:03;4.40;;;3.60;;
11964;SDS011;6042;41.326;19.826;2023-03-13T04:11:33;6.83;;;3.90;;
11964;SDS011;6042;41.326;19.826;2023-03-13T04:14:05;5.30;;;4.00;;
11964;SDS011;6042;41.326;19.826;2023-03-13T04:16:34;5.87;;;3.63;;
11964;SDS011;6042;41.326;19.826;2023-03-13T04:19:03;4.27;;;3.13;;
11964;SDS011;6042;41.326;19.826;2023-03-13T04:21:34;3.87;;;2.50;;
11964;SDS011;6042;41.326;19.826;2023-03-13T04:24:07;2.60;;;2.40;;
11964;SDS011;6042;41.326;19.826;2023-03-13T04:26:38;5.47;;;2.90;;
11964;SDS011;6042;41.326;19.826;2023-03-13T04:29:08;4.30;;;2.70;;
11964;SDS011;6042;41.326;19.826;2023-03-13T04:31:55;4.57;;;2.20;;
11964;SDS011;6042;41.326;19.826;2023-03-13T04:34:52;3.47;;;2.33;;
11964;SDS011;6042;41.326;19.826;2023-03-13T04:37:53;2.00;;;1.80;;
11964;SDS011;6042;41.326;19.826;2023-03-13T04:40:32;2.23;;;1.87;;
11964;SDS011;6042;41.326;19.826;2023-03-13T04:43:10;1.53;;;1.43;;
11964;SDS011;6042;41.326;19.826;2023-03-13T04:46:00;1.70;;;1.60;;
11964;SDS011;6042;41.326;19.826;2023-03-13T04:49:04;1.27;;;1.17;;
11964;SDS011;6042;41.326;19.826;2023-03-13T04:51:53;2.30;;;1.00;;
11964;SDS011;6042;41.326;19.826;2023-03-13T04:54:40;1.07;;;1.03;;
11964;SDS011;6042;41.326;19.826;2023-03-13T04:57:20;2.80;;;1.27;;
11964;SDS011;6042;41.326;19.826;2023-03-13T04:59:54;1.57;;;1.40;;
11964;SDS011;6042;41.326;19.826;2023-03-13T05:02:44;0.97;;;0.87;;
11964;SDS011;6042;41.326;19.826;2023-03-13T05:05:45;4.03;;;1.20;;
11964;SDS011;6042;41.326;19.826;2023-03-13T05:08:16;2.07;;;1.10;;
11964;SDS011;6042;41.326;19.826;2023-03-13T05:10:55;0.87;;;0.83;;
11964;SDS011;6042;41.326;19.826;2023-03-13T05:13:37;4.30;;;1.20;;
11964;SDS011;6042;41.326;19.826;2023-03-13T05:16:13;2.43;;;1.37;;
11964;SDS011;6042;41.326;19.826;2023-03-13T05:19:03;4.77;;;1.20;;
11964;SDS011;6042;41.326;19.826;2023-03-13T05:21:45;1.17;;;1.07;;
11964;SDS011;6042;41.326;19.826;2023-03-13T05:24:23;3.60;;;1.10;;
11964;SDS011;6042;41.326;19.826;2023-03-13T05:27:15;1.23;;;0.90;;
11964;SDS011;6042;41.326;19.826;2023-03-13T05:30:00;1.30;;;1.20;;
11964;SDS011;6042;41.326;19.826;2023-03-13T05:32:42;4.70;;;1.73;;
11964;SDS011;6042;41.326;19.826;2023-03-13T05:35:32;4.60;;;1.20;;
11964;SDS011;6042;41.326;19.826;2023-03-13T05:38:17;10.33;;;1.83;;
11964;SDS011;6042;41.326;19.826;2023-03-13T05:41:05;2.30;;;1.20;;
11964;SDS011;6042;41.326;19.826;2023-03-13T05:43:44;6.43;;;2.40;;
11964;SDS011;6042;41.326;19.826;2023-03-13T05:46:51;13.37;;;3.30;;
11964;SDS011;6042;41.326;19.826;2023-03-13T05:49:32;5.00;;;2.00;;
11964;SDS011;6042;41.326;19.826;2023-03-13T05:52:31;3.80;;;1.27;;
11964;SDS011;6042;41.326;19.826;2023-03-13T05:55:03;2.23;;;1.40;;
11964;SDS011;6042;41.326;19.826;2023-03-13T05:57:52;2.60;;;1.33;;
11964;SDS011;6042;41.326;19.826;2023-03-13T06:00:39;6.93;;;1.73;;
11964;SDS011;6042;41.326;19.826;2023-03-13T06:03:28;1.73;;;1.00;;
11964;SDS011;6042;41.326;19.826;2023-03-13T06:05:58;1.93;;;1.30;;
11964;SDS011;6042;41.326;19.826;2023-03-13T06:08:39;2.03;;;1.60;;
11964;SDS011;6042;41.326;19.826;2023-03-13T06:11:08;1.97;;;1.40;;
11964;SDS011;6042;41.326;19.826;2023-03-13T06:13:36;2.97;;;1.90;;
11964;SDS011;6042;41.326;19.826;2023-03-13T06:16:18;6.87;;;2.60;;
11964;SDS011;6042;41.326;19.826;2023-03-13T06:18:47;2.77;;;1.53;;
11964;SDS011;6042;41.326;19.826;2023-03-13T06:21:16;4.33;;;2.07;;
11964;SDS011;6042;41.326;19.826;2023-03-13T06:23:46;2.17;;;1.73;;
11964;SDS011;6042;41.326;19.826;2023-03-13T06:26:14;9.90;;;1.90;;
11964;SDS011;6042;41.326;19.826;2023-03-13T06:28:43;2.17;;;1.77;;
11964;SDS011;6042;41.326;19.826;2023-03-13T06:31:11;1.70;;;1.60;;
11964;SDS011;6042;41.326;19.826;2023-03-13T06:33:39;3.67;;;1.40;;
11964;SDS011;6042;41.326;19.826;2023-03-13T06:36:08;1.33;;;1.20;;
11964;SDS011;6042;41.326;19.826;2023-03-13T06:38:36;4.27;;;2.13;;
11964;SDS011;6042;41.326;19.826;2023-03-13T06:41:06;1.70;;;1.50;;
11964;SDS011;6042;41.326;19.826;2023-03-13T06:43:36;10.13;;;1.80;;
11964;SDS011;6042;41.326;19.826;2023-03-13T06:46:06;5.83;;;1.57;;
11964;SDS011;6042;41.326;19.826;2023-03-13T06:48:35;1.40;;;1.30;;
11964;SDS011;6042;41.326;19.826;2023-03-13T06:51:03;6.30;;;1.20;;
11964;SDS011;6042;41.326;19.826;2023-03-13T06:53:32;3.60;;;1.33;;
11964;SDS011;6042;41.326;19.826;2023-03-13T06:56:04;6.70;;;1.80;;
11964;SDS011;6042;41.326;19.826;2023-03-13T06:58:34;5.70;;;1.90;;
11964;SDS011;6042;41.326;19.826;2023-03-13T07:01:04;5.63;;;1.30;;
11964;SDS011;6042;41.326;19.826;2023-03-13T07:03:35;1.60;;;1.23;;
11964;SDS011;6042;41.326;19.826;2023-03-13T07:06:04;3.40;;;1.67;;
11964;SDS011;6042;41.326;19.826;2023-03-13T07:08:32;5.70;;;1.80;;
11964;SDS011;6042;41.326;19.826;2023-03-13T07:11:02;3.00;;;1.33;;
11964;SDS011;6042;41.326;19.826;2023-03-13T07:13:32;3.53;;;1.40;;
11964;SDS011;6042;41.326;19.826;2023-03-13T07:16:02;8.53;;;1.93;;
11964;SDS011;6042;41.326;19.826;2023-03-13T07:18:33;6.67;;;1.50;;
11964;SDS011;6042;41.326;19.826;2023-03-13T07:21:02;7.63;;;1.67;;
11964;SDS011;6042;41.326;19.826;2023-03-13T07:23:32;6.57;;;1.50;;
11964;SDS011;6042;41.326;19.826;2023-03-13T07:26:02;3.80;;;1.87;;
11964;SDS011;6042;41.326;19.826;2023-03-13T07:28:31;2.17;;;1.20;;
11964;SDS011;6042;41.326;19.826;2023-03-13T07:31:05;2.90;;;1.37;;
11964;SDS011;6042;41.326;19.826;2023-03-13T07:33:35;2.07;;;1.20;;
11964;SDS011;6042;41.326;19.826;2023-03-13T07:36:04;9.33;;;1.97;;
11964;SDS011;6042;41.326;19.826;2023-03-13T07:38:33;3.17;;;2.10;;
11964;SDS011;6042;41.326;19.826;2023-03-13T07:41:02;9.07;;;1.90;;
11964;SDS011;6042;41.326;19.826;2023-03-13T07:43:31;3.60;;;1.67;;
11964;SDS011;6042;41.326;19.826;2023-03-13T07:46:01;11.50;;;2.40;;
11964;SDS011;6042;41.326;19.826;2023-03-13T07:48:33;3.80;;;1.80;;
11964;SDS011;6042;41.326;19.826;2023-03-13T07:51:02;6.97;;;2.23;;
11964;SDS011;6042;41.326;19.826;2023-03-13T07:53:31;11.57;;;2.40;;
11964;SDS011;6042;41.326;19.826;2023-03-13T07:56:01;3.43;;;2.00;;
11964;SDS011;6042;41.326;19.826;2023-03-13T07:58:32;4.27;;;2.10;;
11964;SDS011;6042;41.326;19.826;2023-03-13T08:01:06;3.73;;;2.30;;
11964;SDS011;6042;41.326;19.826;2023-03-13T08:03:38;4.20;;;1.93;;
11964;SDS011;6042;41.326;19.826;2023-03-13T08:06:08;5.40;;;2.60;;
11964;SDS011;6042;41.326;19.826;2023-03-13T08:08:38;5.87;;;2.50;;
11964;SDS011;6042;41.326;19.826;2023-03-13T08:11:08;5.77;;;3.10;;
11964;SDS011;6042;41.326;19.826;2023-03-13T08:13:37;10.43;;;3.53;;
11964;SDS011;6042;41.326;19.826;2023-03-13T08:16:07;3.60;;;2.83;;
11964;SDS011;6042;41.326;19.826;2023-03-13T08:18:39;6.17;;;3.83;;
11964;SDS011;6042;41.326;19.826;2023-03-13T08:21:10;5.70;;;3.13;;
11964;SDS011;6042;41.326;19.826;2023-03-13T08:23:40;6.37;;;3.50;;
11964;SDS011;6042;41.326;19.826;2023-03-13T08:26:09;2.77;;;1.67;;
11964;SDS011;6042;41.326;19.826;2023-03-13T08:28:39;3.10;;;1.47;;
11964;SDS011;6042;41.326;19.826;2023-03-13T08:31:08;1.43;;;1.30;;
11964;SDS011;6042;41.326;19.826;2023-03-13T08:33:40;2.10;;;1.40;;
11964;SDS011;6042;41.326;19.826;2023-03-13T08:36:11;1.37;;;1.27;;
11964;SDS011;6042;41.326;19.826;2023-03-13T08:38:44;2.00;;;1.40;;
11964;SDS011;6042;41.326;19.826;2023-03-13T08:41:14;4.83;;;1.87;;
11964;SDS011;6042;41.326;19.826;2023-03-13T08:43:44;3.67;;;1.10;;
11964;SDS011;6042;41.326;19.826;2023-03-13T08:46:13;1.53;;;1.43;;
11964;SDS011;6042;41.326;19.826;2023-03-13T08:48:48;5.73;;;1.50;;
11964;SDS011;6042;41.326;19.826;2023-03-13T08:51:18;4.00;;;1.30;;
11964;SDS011;6042;41.326;19.826;2023-03-13T08:53:47;4.50;;;1.40;;
11964;SDS011;6042;41.326;19.826;2023-03-13T08:56:16;1.43;;;0.90;;
11964;SDS011;6042;41.326;19.826;2023-03-13T08:58:47;2.77;;;1.20;;
11964;SDS011;6042;41.326;19.826;2023-03-13T09:01:17;1.40;;;0.80;;
11964;SDS011;6042;41.326;19.826;2023-03-13T09:03:49;2.20;;;0.80;;
11964;SDS011;6042;41.326;19.826;2023-03-13T09:06:18;3.23;;;1.10;;
11964;SDS011;6042;41.326;19.826;2023-03-13T09:08:48;2.70;;;1.97;;
11964;SDS011;6042;41.326;19.826;2023-03-13T09:11:17;2.10;;;1.30;;
11964;SDS011;6042;41.326;19.826;2023-03-13T09:13:49;3.30;;;1.90;;
11964;SDS011;6042;41.326;19.826;2023-03-13T09:16:18;3.53;;;1.80;;
11964;SDS011;6042;41.326;19.826;2023-03-13T09:18:50;7.10;;;3.07;;
11964;SDS011;6042;41.326;19.826;2023-03-13T09:21:19;8.47;;;4.00;;
11964;SDS011;6042;41.326;19.826;2023-03-13T09:23:49;5.60;;;3.00;;
11964;SDS011;6042;41.326;19.826;2023-03-13T09:26:18;6.37;;;2.77;;
11964;SDS011;6042;41.326;19.826;2023-03-13T09:28:49;9.13;;;3.10;;
11964;SDS011;6042;41.326;19.826;2023-03-13T09:31:19;4.20;;;2.20;;
11964;SDS011;6042;41.326;19.826;2023-03-13T09:33:50;2.57;;;1.40;;
11964;SDS011;6042;41.326;19.826;2023-03-13T09:36:19;5.40;;;2.43;;
11964;SDS011;6042;41.326;19.826;2023-03-13T09:38:49;1.73;;;1.60;;
11964;SDS011;6042;41.326;19.826;2023-03-13T09:41:19;3.00;;;1.80;;
11964;SDS011;6042;41.326;19.826;2023-03-13T09:43:52;10.00;;;2.83;;
11964;SDS011;6042;41.326;19.826;2023-03-13T09:46:29;5.10;;;2.37;;
11964;SDS011;6042;41.326;19.826;2023-03-13T09:49:06;3.80;;;2.10;;
11964;SDS011;6042;41.326;19.826;2023-03-13T09:51:45;6.97;;;2.67;;
11964;SDS011;6042;41.326;19.826;2023-03-13T09:54:21;6.17;;;2.80;;
11964;SDS011;6042;41.326;19.826;2023-03-13T09:56:53;5.40;;;2.70;;
11964;SDS011;6042;41.326;19.826;2023-03-13T09:59:26;4.97;;;2.77;;
11964;SDS011;6042;41.326;19.826;2023-03-13T10:02:14;5.43;;;3.10;;
11964;SDS011;6042;41.326;19.826;2023-03-13T10:04:50;6.00;;;2.63;;
11964;SDS011;6042;41.326;19.826;2023-03-13T10:07:24;3.20;;;2.13;;
11964;SDS011;6042;41.326;19.826;2023-03-13T10:09:53;7.10;;;2.93;;
11964;SDS011;6042;41.326;19.826;2023-03-13T10:12:22;5.80;;;2.97;;
11964;SDS011;6042;41.326;19.826;2023-03-13T10:17:54;7.40;;;2.77;;
11964;SDS011;6042;41.326;19.826;2023-03-13T10:20:26;6.60;;;2.90;;
11964;SDS011;6042;41.326;19.826;2023-03-13T10:22:56;3.33;;;2.33;;
11964;SDS011;6042;41.326;19.826;2023-03-13T10:25:31;4.53;;;2.40;;
11964;SDS011;6042;41.326;19.826;2023-03-13T10:28:00;3.43;;;2.13;;
11964;SDS011;6042;41.326;19.826;2023-03-13T10:30:30;8.00;;;3.53;;
11964;SDS011;6042;41.326;19.826;2023-03-13T10:33:13;3.93;;;2.50;;
11964;SDS011;6042;41.326;19.826;2023-03-13T10:36:00;3.77;;;2.53;;
11964;SDS011;6042;41.326;19.826;2023-03-13T10:38:32;4.37;;;2.70;;
11964;SDS011;6042;41.326;19.826;2023-03-13T10:43:50;6.70;;;2.80;;
11964;SDS011;6042;41.326;19.826;2023-03-13T10:46:23;6.67;;;3.10;;
11964;SDS011;6042;41.326;19.826;2023-03-13T10:48:53;2.40;;;2.20;;
11964;SDS011;6042;41.326;19.826;2023-03-13T10:51:24;5.30;;;3.17;;
11964;SDS011;6042;41.326;19.826;2023-03-13T10:54:09;4.63;;;2.70;;
11964;SDS011;6042;41.326;19.826;2023-03-13T10:56:40;3.23;;;2.60;;
11964;SDS011;6042;41.326;19.826;2023-03-13T10:59:22;4.27;;;2.50;;
11964;SDS011;6042;41.326;19.826;2023-03-13T11:01:52;14.07;;;3.63;;
11964;SDS011;6042;41.326;19.826;2023-03-13T11:04:31;3.67;;;1.90;;
11964;SDS011;6042;41.326;19.826;2023-03-13T11:07:03;4.80;;;2.50;;
11964;SDS011;6042;41.326;19.826;2023-03-13T11:09:32;4.60;;;2.17;;
11964;SDS011;6042;41.326;19.826;2023-03-13T11:12:02;4.30;;;2.00;;
11964;SDS011;6042;41.326;19.826;2023-03-13T11:14:33;4.80;;;1.80;;
11964;SDS011;6042;41.326;19.826;2023-03-13T11:17:03;4.03;;;2.50;;
11964;SDS011;6042;41.326;19.826;2023-03-13T11:22:34;3.30;;;2.73;;
11964;SDS011;6042;41.326;19.826;2023-03-13T11:25:19;5.27;;;3.73;;
11964;SDS011;6042;41.326;19.826;2023-03-13T11:27:56;6.37;;;4.60;;
11964;SDS011;6042;41.326;19.826;2023-03-13T11:30:41;7.27;;;4.20;;
11964;SDS011;6042;41.326;19.826;2023-03-13T11:33:21;7.33;;;3.83;;
11964;SDS011;6042;41.326;19.826;2023-03-13T11:35:58;7.90;;;4.47;;
11964;SDS011;6042;41.326;19.826;2023-03-13T11:38:33;5.90;;;4.17;;
11964;SDS011;6042;41.326;19.826;2023-03-13T11:41:09;5.73;;;3.23;;
11964;SDS011;6042;41.326;19.826;2023-03-13T11:44:04;6.53;;;3.57;;
11964;SDS011;6042;41.326;19.826;2023-03-13T11:46:47;6.17;;;2.90;;
11964;SDS011;6042;41.326;19.826;2023-03-13T11:49:25;5.30;;;2.60;;
11964;SDS011;6042;41.326;19.826;2023-03-13T11:52:04;5.33;;;3.10;;
11964;SDS011;6042;41.326;19.826;2023-03-13T11:54:56;6.43;;;3.87;;
11964;SDS011;6042;41.326;19.826;2023-03-13T11:57:36;5.23;;;3.93;;
11964;SDS011;6042;41.326;19.826;2023-03-13T12:00:17;11.93;;;4.50;;
11964;SDS011;6042;41.326;19.826;2023-03-13T12:02:50;5.77;;;4.57;;
11964;SDS011;6042;41.326;19.826;2023-03-13T12:05:23;6.07;;;4.13;;
11964;SDS011;6042;41.326;19.826;2023-03-13T12:07:55;6.77;;;4.03;;
11964;SDS011;6042;41.326;19.826;2023-03-13T12:10:30;11.67;;;4.80;;
11964;SDS011;6042;41.326;19.826;2023-03-13T12:13:04;8.63;;;3.97;;
11964;SDS011;6042;41.326;19.826;2023-03-13T12:15:37;7.43;;;3.60;;
11964;SDS011;6042;41.326;19.826;2023-03-13T12:18:11;6.87;;;3.80;;
11964;SDS011;6042;41.326;19.826;2023-03-13T12:20:46;10.73;;;4.20;;
11964;SDS011;6042;41.326;19.826;2023-03-13T12:23:23;7.33;;;3.87;;
11964;SDS011;6042;41.326;19.826;2023-03-13T12:26:01;6.40;;;4.10;;
11964;SDS011;6042;41.326;19.826;2023-03-13T12:28:34;4.43;;;3.00;;
11964;SDS011;6042;41.326;19.826;2023-03-13T12:31:10;5.33;;;3.67;;
11964;SDS011;6042;41.326;19.826;2023-03-13T12:33:47;8.83;;;3.73;;
11964;SDS011;6042;41.326;19.826;2023-03-13T12:36:23;6.37;;;3.47;;
11964;SDS011;6042;41.326;19.826;2023-03-13T12:38:58;7.33;;;3.57;;
11964;SDS011;6042;41.326;19.826;2023-03-13T12:41:41;4.60;;;3.17;;
11964;SDS011;6042;41.326;19.826;2023-03-13T12:44:11;7.00;;;3.63;;
11964;SDS011;6042;41.326;19.826;2023-03-13T12:46:45;7.27;;;3.40;;
11964;SDS011;6042;41.326;19.826;2023-03-13T12:49:25;3.83;;;3.30;;
11964;SDS011;6042;41.326;19.826;2023-03-13T12:52:12;6.77;;;3.00;;
11964;SDS011;6042;41.326;19.826;2023-03-13T12:55:02;3.37;;;2.43;;
11964;SDS011;6042;41.326;19.826;2023-03-13T12:57:59;3.33;;;3.00;;
11964;SDS011;6042;41.326;19.826;2023-03-13T13:00:40;5.13;;;3.30;;
11964;SDS011;6042;41.326;19.826;2023-03-13T13:03:18;11.77;;;4.00;;
11964;SDS011;6042;41.326;19.826;2023-03-13T13:05:59;7.47;;;3.40;;
11964;SDS011;6042;41.326;19.826;2023-03-13T13:08:36;3.87;;;3.43;;
11964;SDS011;6042;41.326;19.826;2023-03-13T13:17:32;5.57;;;3.17;;
11964;SDS011;6042;41.326;19.826;2023-03-13T13:20:37;6.57;;;3.57;;
11964;SDS011;6042;41.326;19.826;2023-03-13T13:23:20;6.60;;;2.93;;
11964;SDS011;6042;41.326;19.826;2023-03-13T13:35:18;8.73;;;4.43;;
11964;SDS011;6042;41.326;19.826;2023-03-13T13:37:49;4.23;;;3.07;;
11964;SDS011;6042;41.326;19.826;2023-03-13T13:40:22;8.33;;;3.57;;
11964;SDS011;6042;41.326;19.826;2023-03-13T13:42:54;8.13;;;3.30;;
11964;SDS011;6042;41.326;19.826;2023-03-13T13:45:27;3.33;;;2.70;;
11964;SDS011;6042;41.326;19.826;2023-03-13T13:51:18;4.30;;;2.90;;
11964;SDS011;6042;41.326;19.826;2023-03-13T13:53:55;5.17;;;3.00;;
11964;SDS011;6042;41.326;19.826;2023-03-13T13:56:28;4.00;;;2.83;;
11964;SDS011;6042;41.326;19.826;2023-03-13T14:02:11;5.77;;;3.33;;
11964;SDS011;6042;41.326;19.826;2023-03-13T14:04:54;5.30;;;2.90;;
11964;SDS011;6042;41.326;19.826;2023-03-13T14:07:28;6.97;;;2.57;;
11964;SDS011;6042;41.326;19.826;2023-03-13T14:10:05;5.23;;;2.67;;
11964;SDS011;6042;41.326;19.826;2023-03-13T14:12:44;4.97;;;2.93;;
11964;SDS011;6042;41.326;19.826;2023-03-13T14:15:15;2.83;;;2.63;;
11964;SDS011;6042;41.326;19.826;2023-03-13T14:17:46;3.60;;;2.53;;
11964;SDS011;6042;41.326;19.826;2023-03-13T14:20:24;4.43;;;2.53;;
11964;SDS011;6042;41.326;19.826;2023-03-13T14:22:55;4.43;;;2.40;;
11964;SDS011;6042;41.326;19.826;2023-03-13T14:25:28;2.50;;;2.30;;
11964;SDS011;6042;41.326;19.826;2023-03-13T14:28:16;3.40;;;2.80;;
11964;SDS011;6042;41.326;19.826;2023-03-13T14:30:47;3.30;;;2.20;;
11964;SDS011;6042;41.326;19.826;2023-03-13T14:33:18;6.90;;;2.90;;
11964;SDS011;6042;41.326;19.826;2023-03-13T14:35:48;4.07;;;2.70;;
11964;SDS011;6042;41.326;19.826;2023-03-13T14:38:17;5.57;;;2.60;;
11964;SDS011;6042;41.326;19.826;2023-03-13T14:40:48;5.87;;;2.17;;
11964;SDS011;6042;41.326;19.826;2023-03-13T14:43:18;3.93;;;2.10;;
11964;SDS011;6042;41.326;19.826;2023-03-13T14:45:50;3.17;;;2.10;;
11964;SDS011;6042;41.326;19.826;2023-03-13T14:48:19;2.27;;;1.90;;
11964;SDS011;6042;41.326;19.826;2023-03-13T14:50:52;5.43;;;2.50;;
11964;SDS011;6042;41.326;19.826;2023-03-13T14:53:52;2.67;;;1.70;;
11964;SDS011;6042;41.326;19.826;2023-03-13T14:56:29;3.67;;;1.90;;
11964;SDS011;6042;41.326;19.826;2023-03-13T14:59:06;2.57;;;2.00;;
11964;SDS011;6042;41.326;19.826;2023-03-13T15:01:35;5.57;;;2.00;;
11964;SDS011;6042;41.326;19.826;2023-03-13T15:04:04;3.20;;;1.90;;
11964;SDS011;6042;41.326;19.826;2023-03-13T15:06:34;4.97;;;2.50;;
11964;SDS011;6042;41.326;19.826;2023-03-13T15:09:18;5.10;;;2.67;;
11964;SDS011;6042;41.326;19.826;2023-03-13T15:11:53;4.63;;;2.67;;
11964;SDS011;6042;41.326;19.826;2023-03-13T15:14:39;8.83;;;3.57;;
11964;SDS011;6042;41.326;19.826;2023-03-13T15:17:13;3.63;;;2.83;;
11964;SDS011;6042;41.326;19.826;2023-03-13T15:19:46;11.83;;;2.90;;
11964;SDS011;6042;41.326;19.826;2023-03-13T15:22:17;3.50;;;2.30;;
11964;SDS011;6042;41.326;19.826;2023-03-13T15:24:51;4.63;;;2.67;;
11964;SDS011;6042;41.326;19.826;2023-03-13T15:27:32;5.67;;;3.40;;
11964;SDS011;6042;41.326;19.826;2023-03-13T15:30:01;4.43;;;2.33;;
11964;SDS011;6042;41.326;19.826;2023-03-13T15:32:30;3.60;;;2.17;;
11964;SDS011;6042;41.326;19.826;2023-03-13T15:35:01;6.17;;;3.03;;
11964;SDS011;6042;41.326;19.826;2023-03-13T15:37:40;7.53;;;3.00;;
11964;SDS011;6042;41.326;19.826;2023-03-13T15:40:12;6.00;;;2.93;;
11964;SDS011;6042;41.326;19.826;2023-03-13T15:42:41;9.47;;;3.10;;
11964;SDS011;6042;41.326;19.826;2023-03-13T15:45:10;7.30;;;3.23;;
11964;SDS011;6042;41.326;19.826;2023-03-13T15:47:38;5.43;;;3.20;;
11964;SDS011;6042;41.326;19.826;2023-03-13T15:50:09;4.77;;;3.30;;
11964;SDS011;6042;41.326;19.826;2023-03-13T15:52:40;5.87;;;3.10;;
11964;SDS011;6042;41.326;19.826;2023-03-13T15:55:09;5.60;;;3.07;;
11964;SDS011;6042;41.326;19.826;2023-03-13T15:57:40;10.57;;;8.53;;